createdAt,value
2018-01-13T00:01:37.334Z,93.47
2018-01-13T00:04:04.804Z,88.67
2018-01-13T00:06:32.287Z,90.20
2018-01-13T00:08:59.754Z,91.27
2018-01-13T00:11:27.232Z,85.00
2018-01-13T00:13:54.686Z,88.90
2018-01-13T00:16:22.343Z,79.97
2018-01-13T00:18:49.798Z,90.67
2018-01-13T00:21:17.266Z,85.60
2018-01-13T00:23:44.760Z,91.33
2018-01-13T00:26:12.223Z,86.80
2018-01-13T00:28:39.702Z,99.00
2018-01-13T00:31:07.158Z,99.37
2018-01-13T00:33:34.634Z,92.47
2018-01-13T00:36:02.099Z,91.17
2018-01-13T00:38:29.574Z,92.70
2018-01-13T00:40:57.039Z,92.50
2018-01-13T00:43:24.691Z,99.60
2018-01-13T00:45:52.160Z,92.77
2018-01-13T00:48:19.630Z,90.30
2018-01-13T00:50:47.114Z,87.73
2018-01-13T00:53:14.576Z,88.93
2018-01-13T00:55:42.059Z,91.27
2018-01-13T00:58:09.523Z,84.53
2018-01-13T01:00:37.011Z,85.97
2018-01-13T01:03:04.466Z,93.97
2018-01-13T01:05:31.949Z,91.13
2018-01-13T01:07:59.410Z,88.40
2018-01-13T01:10:26.891Z,83.33
2018-01-13T01:12:54.375Z,87.60
2018-01-13T01:15:21.842Z,97.37
2018-01-13T01:17:49.667Z,101.20
2018-01-13T01:20:17.122Z,94.77
2018-01-13T01:22:44.602Z,96.40
2018-01-13T01:25:12.085Z,101.37
2018-01-13T01:27:39.565Z,94.00
2018-01-13T01:30:07.051Z,103.67
2018-01-13T01:32:34.519Z,110.97
2018-01-13T01:35:02.017Z,100.23
2018-01-13T01:37:29.491Z,102.77
2018-01-13T01:39:57.010Z,106.97
2018-01-13T01:42:24.479Z,108.47
2018-01-13T01:44:51.963Z,106.37
2018-01-13T01:47:19.437Z,110.30
2018-01-13T01:49:46.992Z,113.47
2018-01-13T01:52:14.463Z,105.93
2018-01-13T01:54:41.946Z,113.10
2018-01-13T01:57:09.443Z,105.77
2018-01-13T01:59:36.914Z,112.00
2018-01-13T02:02:04.402Z,111.00
2018-01-13T02:04:31.873Z,103.70
2018-01-13T02:06:59.360Z,115.67
2018-01-13T02:09:26.830Z,94.53
2018-01-13T02:11:54.322Z,84.00
2018-01-13T02:14:21.778Z,78.60
2018-01-13T02:16:49.244Z,70.40
2018-01-13T02:19:16.725Z,89.63
2018-01-13T02:21:44.186Z,105.80
2018-01-13T02:24:11.670Z,110.97
2018-01-13T02:26:39.136Z,111.90
2018-01-13T02:29:06.626Z,106.80
2018-01-13T02:31:34.121Z,101.23
2018-01-13T02:34:01.606Z,98.37
2018-01-13T02:36:29.079Z,107.27
2018-01-13T02:38:56.552Z,100.83
2018-01-13T02:41:24.046Z,109.20
2018-01-13T02:43:51.527Z,114.63
2018-01-13T02:46:19.010Z,117.90
2018-01-13T02:48:46.483Z,115.20
2018-01-13T02:51:13.970Z,106.63
2018-01-13T02:53:41.474Z,115.87
2018-01-13T02:56:08.939Z,114.80
2018-01-13T02:58:36.416Z,107.57
2018-01-13T03:01:03.874Z,96.10
2018-01-13T03:03:31.368Z,110.00
2018-01-13T03:05:58.861Z,100.60
2018-01-13T03:08:26.344Z,104.37
2018-01-13T03:10:53.814Z,96.13
2018-01-13T03:13:21.302Z,110.77
2018-01-13T03:15:48.774Z,104.13
2018-01-13T03:18:16.255Z,99.77
2018-01-13T03:20:43.718Z,106.83
2018-01-13T03:23:11.184Z,123.35
2018-01-13T03:25:38.682Z,109.43
2018-01-13T03:28:06.154Z,97.90
2018-01-13T03:30:33.643Z,93.03
2018-01-13T03:33:01.130Z,92.33
2018-01-13T03:35:28.611Z,93.47
2018-01-13T03:37:56.075Z,95.87
2018-01-13T03:40:23.562Z,96.47
2018-01-13T03:42:51.214Z,98.53
2018-01-13T03:45:18.682Z,84.80
2018-01-13T03:47:46.171Z,90.27
2018-01-13T03:50:13.651Z,102.93
2018-01-13T03:52:41.146Z,90.33
2018-01-13T03:55:08.599Z,85.83
2018-01-13T03:57:36.090Z,91.70
2018-01-13T04:00:03.626Z,96.00
2018-01-13T04:02:31.238Z,93.07
2018-01-13T04:04:58.698Z,87.60
2018-01-13T04:07:26.162Z,88.00
2018-01-13T04:09:53.727Z,94.17
2018-01-13T04:12:21.190Z,91.47
2018-01-13T04:14:48.685Z,84.93
2018-01-13T04:17:16.151Z,94.47
2018-01-13T04:19:43.634Z,81.40
2018-01-13T04:22:11.142Z,76.87
2018-01-13T04:24:38.808Z,76.53
2018-01-13T04:27:06.415Z,82.77
2018-01-13T04:29:33.872Z,92.10
2018-01-13T04:32:01.352Z,91.87
2018-01-13T04:34:28.818Z,90.70
2018-01-13T04:36:56.425Z,101.03
2018-01-13T04:39:23.896Z,90.50
2018-01-13T04:41:51.410Z,76.83
2018-01-13T04:44:18.879Z,80.77
2018-01-13T04:46:46.543Z,72.47
2018-01-13T04:49:14.008Z,79.33
2018-01-13T04:51:41.474Z,70.00
2018-01-13T04:54:08.951Z,71.83
2018-01-13T04:56:36.414Z,67.33
2018-01-13T04:59:03.899Z,78.37
2018-01-13T05:01:31.354Z,75.77
2018-01-13T05:03:58.853Z,74.03
2018-01-13T05:06:26.326Z,60.07
2018-01-13T05:08:53.811Z,64.77
2018-01-13T05:11:21.271Z,66.43
2018-01-13T05:13:48.767Z,61.50
2018-01-13T05:16:16.250Z,67.70
2018-01-13T05:18:43.710Z,65.53
2018-01-13T05:21:11.197Z,59.03
2018-01-13T05:23:38.666Z,58.17
2018-01-13T05:26:06.157Z,63.23
2018-01-13T05:28:33.618Z,59.03
2018-01-13T05:31:01.090Z,64.53
2018-01-13T05:33:28.551Z,55.37
2018-01-13T05:35:56.031Z,61.97
2018-01-13T05:38:23.494Z,59.17
2018-01-13T05:40:51.134Z,57.67
2018-01-13T05:43:18.599Z,65.03
2018-01-13T05:45:46.054Z,60.07
2018-01-13T05:48:13.532Z,60.83
2018-01-13T05:50:40.990Z,62.13
2018-01-13T05:53:08.506Z,61.17
2018-01-13T05:55:35.974Z,55.10
2018-01-13T05:58:03.530Z,49.43
2018-01-13T06:00:30.999Z,49.17
2018-01-13T06:02:58.481Z,56.13
2018-01-13T06:05:25.938Z,49.20
2018-01-13T06:07:53.425Z,53.03
2018-01-13T06:10:20.887Z,55.50
2018-01-13T06:12:48.342Z,54.43
2018-01-13T06:15:15.823Z,54.53
2018-01-13T06:17:43.286Z,58.60
2018-01-13T06:20:10.818Z,50.93
2018-01-13T06:22:38.395Z,51.13
2018-01-13T06:25:05.879Z,46.40
2018-01-13T06:27:33.336Z,44.33
2018-01-13T06:30:00.824Z,48.50
2018-01-13T06:32:28.294Z,47.50
2018-01-13T06:34:55.930Z,47.33
2018-01-13T06:37:23.396Z,44.47
2018-01-13T06:39:50.862Z,41.77
2018-01-13T06:42:18.342Z,48.07
2018-01-13T06:44:45.803Z,46.63
2018-01-13T06:47:13.305Z,41.10
2018-01-13T06:49:40.771Z,45.23
2018-01-13T06:52:08.258Z,48.47
2018-01-13T06:54:35.831Z,44.90
2018-01-13T06:57:03.309Z,45.33
2018-01-13T06:59:30.770Z,48.73
2018-01-13T07:01:58.258Z,45.70
2018-01-13T07:06:59.638Z,45.03
2018-01-13T07:09:27.102Z,44.30
2018-01-13T07:11:54.562Z,44.90
2018-01-13T07:14:22.042Z,43.20
2018-01-13T07:16:49.511Z,38.47
2018-01-13T07:19:17.004Z,39.83
2018-01-13T07:21:44.468Z,43.30
2018-01-13T07:24:11.950Z,44.07
2018-01-13T07:26:39.410Z,42.90
2018-01-13T07:29:06.916Z,46.97
2018-01-13T07:31:34.380Z,44.37
2018-01-13T07:34:01.859Z,43.40
2018-01-13T07:36:29.326Z,46.10
2018-01-13T07:38:56.790Z,50.03
2018-01-13T07:41:24.270Z,50.17
2018-01-13T07:43:51.730Z,43.93
2018-01-13T07:46:19.263Z,47.90
2018-01-13T07:48:46.727Z,48.53
2018-01-13T07:51:14.206Z,42.77
2018-01-13T07:53:41.666Z,45.37
2018-01-13T07:56:09.143Z,43.93
2018-01-13T07:58:36.610Z,40.60
2018-01-13T08:01:04.088Z,43.20
2018-01-13T08:03:31.555Z,45.20
2018-01-13T08:05:59.027Z,41.23
2018-01-13T08:08:26.539Z,43.57
2018-01-13T08:10:54.003Z,38.23
2018-01-13T08:13:21.491Z,40.03
2018-01-13T08:15:48.952Z,43.10
2018-01-13T08:18:16.439Z,41.80
2018-01-13T08:20:43.894Z,41.33
2018-01-13T08:23:11.387Z,42.83
2018-01-13T08:25:38.863Z,43.13
2018-01-13T08:28:06.352Z,42.87
2018-01-13T08:30:33.815Z,40.67
2018-01-13T08:33:01.284Z,39.23
2018-01-13T08:35:28.763Z,37.40
2018-01-13T08:37:56.219Z,38.63
2018-01-13T08:40:23.698Z,35.97
2018-01-13T08:42:51.994Z,35.87
2018-01-13T08:45:19.496Z,33.60
2018-01-13T08:47:46.959Z,32.83
2018-01-13T08:50:14.442Z,35.33
2018-01-13T08:52:41.905Z,28.93
2018-01-13T08:55:09.402Z,32.80
2018-01-13T08:57:36.862Z,32.90
2018-01-13T09:00:04.402Z,30.50
2018-01-13T09:02:32.751Z,33.63
2018-01-13T09:05:00.453Z,33.17
2018-01-13T09:07:27.938Z,33.77
2018-01-13T09:09:55.430Z,28.97
2018-01-13T09:12:22.908Z,31.60
2018-01-13T09:14:50.381Z,22.53
2018-01-13T09:17:17.867Z,25.27
2018-01-13T09:19:45.329Z,24.37
2018-01-13T09:22:12.831Z,22.73
2018-01-13T09:24:40.311Z,25.90
2018-01-13T09:27:07.790Z,21.00
2018-01-13T09:29:35.311Z,22.27
2018-01-13T09:32:02.803Z,20.33
2018-01-13T09:34:30.263Z,19.73
2018-01-13T09:36:57.751Z,19.03
2018-01-13T09:39:25.210Z,20.70
2018-01-13T09:41:52.686Z,15.80
2018-01-13T09:44:20.154Z,18.27
2018-01-13T09:46:47.650Z,17.20
2018-01-13T09:49:16.132Z,16.10
2018-01-13T09:51:43.611Z,18.00
2018-01-13T09:54:11.964Z,19.90
2018-01-13T09:56:39.450Z,20.07
2018-01-13T09:59:06.913Z,16.33
2018-01-13T10:01:34.392Z,15.30
2018-01-13T10:04:01.854Z,15.90
2018-01-13T10:06:29.331Z,19.17
2018-01-13T10:08:56.795Z,18.60
2018-01-13T10:11:24.278Z,16.63
2018-01-13T10:13:51.731Z,16.13
2018-01-13T10:16:19.210Z,17.33
2018-01-13T10:18:46.730Z,18.10
2018-01-13T10:21:14.206Z,17.07
2018-01-13T10:23:41.676Z,18.10
2018-01-13T10:26:09.162Z,17.03
2018-01-13T10:28:48.619Z,19.27
2018-01-13T10:31:16.105Z,18.57
2018-01-13T10:33:43.563Z,17.90
2018-01-13T10:36:11.018Z,18.60
2018-01-13T10:38:38.497Z,18.03
2018-01-13T10:41:05.954Z,17.40
2018-01-13T10:43:43.390Z,19.07
2018-01-13T10:46:11.706Z,20.43
2018-01-13T10:48:39.186Z,18.43
2018-01-13T10:51:06.649Z,20.13
2018-01-13T10:53:34.127Z,18.83
2018-01-13T10:56:01.582Z,18.67
2018-01-13T10:58:29.062Z,16.43
2018-01-13T11:00:56.535Z,18.63
2018-01-13T11:03:24.022Z,18.37
2018-01-13T11:05:51.478Z,17.17
2018-01-13T11:08:18.963Z,17.53
2018-01-13T11:10:46.510Z,15.20
2018-01-13T11:13:14.001Z,17.47
2018-01-13T11:15:41.462Z,22.20
2018-01-13T11:18:08.942Z,15.60
2018-01-13T11:20:36.408Z,14.83
2018-01-13T11:23:03.897Z,16.63
2018-01-13T11:25:31.367Z,16.90
2018-01-13T11:27:59.438Z,17.97
2018-01-13T11:30:26.915Z,14.27
2018-01-13T11:32:54.398Z,13.80
2018-01-13T11:35:21.867Z,16.87
2018-01-13T11:37:50.267Z,14.70
2018-01-13T11:40:17.762Z,15.97
2018-01-13T11:42:45.246Z,15.37
2018-01-13T11:45:12.722Z,13.80
2018-01-13T11:47:40.219Z,13.70
2018-01-13T11:50:07.846Z,13.67
2018-01-13T11:52:35.859Z,13.93
2018-01-13T11:55:03.332Z,13.37
2018-01-13T11:57:30.811Z,11.80
2018-01-13T11:59:58.279Z,11.77
2018-01-13T12:02:25.763Z,14.93
2018-01-13T12:04:53.250Z,11.77
2018-01-13T12:07:20.707Z,12.30
2018-01-13T12:09:48.187Z,12.37
2018-01-13T12:12:15.654Z,12.40
2018-01-13T12:14:43.148Z,12.50
2018-01-13T12:17:10.611Z,12.57
2018-01-13T12:19:38.095Z,12.40
2018-01-13T12:22:05.555Z,14.27
2018-01-13T12:24:33.038Z,13.70
2018-01-13T12:27:00.511Z,13.27
2018-01-13T12:29:27.999Z,12.67
2018-01-13T12:31:55.450Z,11.17
2018-01-13T12:34:22.942Z,13.80
2018-01-13T12:36:50.390Z,12.10
2018-01-13T12:39:17.872Z,11.23
2018-01-13T12:41:45.339Z,11.47
2018-01-13T12:44:12.815Z,11.73
2018-01-13T12:46:40.280Z,11.10
2018-01-13T12:49:07.759Z,13.53
2018-01-13T12:51:35.224Z,11.23
2018-01-13T12:54:02.723Z,12.97
2018-01-13T12:56:30.230Z,14.43
2018-01-13T12:58:57.720Z,15.77
2018-01-13T13:01:25.186Z,13.53
2018-01-13T13:03:52.666Z,12.03
2018-01-13T13:06:20.166Z,13.63
2018-01-13T13:08:47.655Z,16.50
2018-01-13T13:11:15.110Z,18.27
2018-01-13T13:13:42.592Z,15.03
2018-01-13T13:16:10.967Z,17.47
2018-01-13T13:18:38.451Z,18.53
2018-01-13T13:21:05.910Z,16.20
2018-01-13T13:23:33.465Z,14.53
2018-01-13T13:26:00.942Z,15.07
2018-01-13T13:28:28.398Z,13.70
2018-01-13T13:30:55.901Z,15.53
2018-01-13T13:33:23.371Z,18.57
2018-01-13T13:35:50.855Z,14.43
2018-01-13T13:38:19.440Z,14.87
2018-01-13T13:40:47.039Z,16.57
2018-01-13T13:43:14.499Z,13.63
2018-01-13T13:45:41.987Z,14.60
2018-01-13T13:48:09.458Z,14.17
2018-01-13T13:50:36.956Z,15.03
2018-01-13T13:53:04.415Z,11.83
2018-01-13T13:55:31.900Z,13.50
2018-01-13T13:57:59.359Z,16.53
2018-01-13T14:00:26.898Z,12.87
2018-01-13T14:02:54.359Z,15.43
2018-01-13T14:05:21.883Z,16.05
2018-01-13T14:07:49.359Z,13.53
2018-01-13T14:10:16.858Z,13.83
2018-01-13T14:12:44.327Z,14.90
2018-01-13T14:15:12.293Z,15.10
2018-01-13T14:17:40.627Z,16.17
2018-01-13T14:20:08.169Z,13.07
2018-01-13T14:22:35.716Z,15.67
2018-01-13T14:25:03.263Z,15.03
2018-01-13T14:27:30.838Z,13.97
2018-01-13T14:29:58.367Z,14.30
2018-01-13T14:32:25.850Z,16.33
2018-01-13T14:34:53.373Z,15.40
2018-01-13T14:37:20.912Z,13.80
2018-01-13T14:39:48.522Z,16.50
2018-01-13T14:42:16.045Z,16.90
2018-01-13T14:44:43.572Z,16.00
2018-01-13T14:47:11.107Z,16.40
2018-01-13T14:49:38.935Z,11.43
2018-01-13T14:52:10.196Z,10.53
2018-01-13T14:54:37.695Z,10.33
2018-01-13T14:57:05.260Z,14.53
2018-01-13T14:59:32.803Z,13.33
2018-01-13T15:02:00.348Z,12.23
2018-01-13T15:04:27.899Z,13.00
2018-01-13T15:06:56.175Z,13.37
2018-01-13T15:09:24.308Z,12.87
2018-01-13T15:11:51.825Z,11.33
2018-01-13T15:14:19.346Z,11.53
2018-01-13T15:16:46.864Z,12.50
2018-01-13T15:19:14.387Z,11.83
2018-01-13T15:21:41.942Z,13.37
2018-01-13T15:24:09.488Z,11.57
2018-01-13T15:26:37.959Z,11.17
2018-01-13T15:29:05.451Z,10.97
2018-01-13T15:31:32.965Z,13.63
2018-01-13T15:34:00.436Z,12.93
2018-01-13T15:36:27.957Z,12.97
2018-01-13T15:38:55.438Z,12.67
2018-01-13T15:41:22.953Z,14.93
2018-01-13T15:43:50.428Z,14.60
2018-01-13T15:46:17.929Z,13.40
2018-01-13T15:48:45.451Z,14.30
2018-01-13T15:51:12.995Z,16.80
2018-01-13T15:53:40.470Z,15.07
2018-01-13T15:56:07.968Z,13.77
2018-01-13T15:58:35.454Z,16.47
2018-01-13T16:01:02.973Z,17.17
2018-01-13T16:03:30.463Z,16.70
2018-01-13T16:05:57.982Z,14.77
2018-01-13T16:08:25.520Z,14.73
2018-01-13T16:10:53.035Z,15.17
2018-01-13T16:13:20.571Z,13.07
2018-01-13T16:15:48.098Z,14.33
2018-01-13T16:18:15.676Z,15.87
2018-01-13T16:20:43.249Z,13.03
2018-01-13T16:23:11.163Z,15.50
2018-01-13T16:25:38.671Z,15.10
2018-01-13T16:28:06.184Z,16.00
2018-01-13T16:30:33.688Z,16.53
2018-01-13T16:33:06.506Z,16.27
2018-01-13T16:35:33.987Z,13.93
2018-01-13T16:38:01.471Z,13.67
2018-01-13T16:40:28.926Z,14.10
2018-01-13T16:42:56.402Z,14.90
2018-01-13T16:45:23.868Z,14.73
2018-01-13T16:47:51.347Z,15.07
2018-01-13T16:50:18.815Z,15.70
2018-01-13T16:52:46.335Z,15.57
2018-01-13T16:55:13.819Z,15.47
2018-01-13T16:57:41.556Z,15.70
2018-01-13T17:00:09.067Z,14.37
2018-01-13T17:02:36.583Z,13.03
2018-01-13T17:05:04.922Z,16.60
2018-01-13T17:07:32.520Z,14.43
2018-01-13T17:12:52.632Z,14.83
2018-01-13T17:15:20.163Z,14.53
2018-01-13T17:17:47.722Z,13.27
2018-01-13T17:20:17.331Z,15.20
2018-01-13T17:22:45.383Z,16.40
2018-01-13T17:25:13.416Z,13.23
2018-01-13T17:27:40.959Z,14.60
2018-01-13T17:30:08.442Z,14.27
2018-01-13T17:32:35.939Z,17.80
2018-01-13T17:35:03.446Z,15.23
2018-01-13T17:37:30.972Z,17.73
2018-01-13T17:39:58.494Z,13.70
2018-01-13T17:42:26.002Z,14.57
2018-01-13T17:44:53.658Z,17.70
2018-01-13T17:47:21.306Z,14.93
2018-01-13T17:49:48.843Z,14.70
2018-01-13T17:52:16.738Z,16.70
2018-01-13T17:54:44.281Z,16.13
2018-01-13T17:57:12.168Z,15.30
2018-01-13T17:59:40.464Z,13.23
2018-01-13T18:02:08.038Z,15.47
2018-01-13T18:04:35.621Z,14.30
2018-01-13T18:07:03.600Z,13.10
2018-01-13T18:09:32.184Z,14.40
2018-01-13T18:11:59.779Z,15.97
2018-01-13T18:14:27.934Z,14.73
2018-01-13T18:16:55.959Z,13.73
2018-01-13T18:19:23.593Z,14.57
2018-01-13T18:21:51.283Z,15.60
2018-01-13T18:24:19.751Z,14.93
2018-01-13T18:26:47.324Z,14.67
2018-01-13T18:29:15.192Z,16.03
2018-01-13T18:31:42.702Z,14.83
2018-01-13T18:34:10.232Z,14.57
2018-01-13T18:36:37.884Z,16.07
2018-01-13T18:39:05.442Z,13.57
2018-01-13T18:41:32.999Z,13.73
2018-01-13T18:44:00.667Z,14.47
2018-01-13T18:46:28.275Z,13.47
2018-01-13T18:48:55.860Z,18.30
2018-01-13T18:51:23.437Z,13.97
2018-01-13T18:53:51.555Z,14.80
2018-01-13T18:56:19.245Z,14.63
2018-01-13T18:58:47.006Z,15.53
2018-01-13T19:01:14.686Z,15.50
2018-01-13T19:03:42.296Z,13.43
2018-01-13T19:06:09.916Z,12.77
2018-01-13T19:08:37.546Z,13.57
2018-01-13T19:11:05.136Z,14.27
2018-01-13T19:13:32.656Z,15.77
2018-01-13T19:16:00.300Z,15.47
2018-01-13T19:18:28.003Z,14.23
2018-01-13T19:20:55.617Z,14.27
2018-01-13T19:23:23.212Z,15.53
2018-01-13T19:25:50.868Z,14.97
2018-01-13T19:28:18.413Z,12.97
2018-01-13T19:30:45.929Z,13.53
2018-01-13T19:33:13.430Z,14.87
2018-01-13T19:35:40.959Z,16.30
2018-01-13T19:38:08.527Z,14.80
2018-01-13T19:40:36.103Z,15.33
2018-01-13T19:43:03.636Z,13.70
2018-01-13T19:45:31.178Z,14.23
2018-01-13T19:47:58.694Z,13.70
2018-01-13T19:50:26.256Z,14.27
2018-01-13T19:52:53.781Z,14.53
2018-01-13T19:55:21.360Z,13.03
2018-01-13T19:57:50.863Z,13.03
2018-01-13T20:00:18.414Z,14.00
2018-01-13T20:02:45.962Z,14.67
2018-01-13T20:05:13.535Z,14.00
2018-01-13T20:07:41.067Z,14.43
2018-01-13T20:10:08.619Z,13.60
2018-01-13T20:12:36.271Z,13.77
2018-01-13T20:15:03.812Z,15.67
2018-01-13T20:17:31.350Z,13.00
2018-01-13T20:19:58.855Z,15.07
2018-01-13T20:22:26.326Z,14.13
2018-01-13T20:24:53.819Z,14.90
2018-01-13T20:27:21.318Z,14.47
2018-01-13T20:29:48.798Z,15.50
2018-01-13T20:32:16.274Z,14.23
2018-01-13T20:34:43.926Z,15.33
2018-01-13T20:37:11.791Z,14.93
2018-01-13T20:39:39.290Z,14.80
2018-01-13T20:42:06.954Z,16.43
2018-01-13T20:44:34.498Z,14.20
2018-01-13T20:47:02.035Z,15.20
2018-01-13T20:49:29.563Z,12.87
2018-01-13T20:51:57.078Z,16.07
2018-01-13T20:54:24.593Z,13.57
2018-01-13T20:56:52.131Z,16.10
2018-01-13T20:59:19.678Z,13.17
2018-01-13T21:01:57.543Z,14.13
2018-01-13T21:04:25.083Z,12.83
2018-01-13T21:06:52.595Z,13.40
2018-01-13T21:09:21.675Z,15.23
2018-01-13T21:11:49.186Z,15.77
2018-01-13T21:14:16.696Z,14.83
2018-01-13T21:16:47.122Z,14.50
2018-01-13T21:19:14.650Z,14.63
2018-01-13T21:21:42.200Z,16.60
2018-01-13T21:24:09.719Z,14.73
2018-01-13T21:26:37.248Z,14.30
2018-01-13T21:29:04.760Z,14.63
2018-01-13T21:31:32.287Z,14.13
2018-01-13T21:33:59.798Z,16.17
2018-01-13T21:36:27.642Z,12.93
2018-01-13T21:39:13.123Z,14.63
2018-01-13T21:41:40.664Z,14.87
2018-01-13T21:44:08.155Z,14.30
2018-01-13T21:46:35.648Z,15.57
2018-01-13T21:49:03.179Z,14.57
2018-01-13T21:51:30.698Z,13.40
2018-01-13T21:53:58.221Z,13.73
2018-01-13T21:56:26.091Z,13.93
2018-01-13T21:58:53.616Z,14.03
2018-01-13T22:01:21.088Z,14.30
2018-01-13T22:03:48.629Z,14.30
2018-01-13T22:06:16.134Z,15.00
2018-01-13T22:08:43.658Z,14.87
2018-01-13T22:11:11.497Z,16.27
2018-01-13T22:13:39.066Z,15.00
2018-01-13T22:16:07.247Z,15.67
2018-01-13T22:18:34.759Z,16.07
2018-01-13T22:21:02.412Z,16.40
2018-01-13T22:23:29.926Z,17.87
2018-01-13T22:25:57.434Z,15.77
2018-01-13T22:28:24.935Z,18.00
2018-01-13T22:30:52.430Z,15.37
2018-01-13T22:33:19.905Z,16.80
2018-01-13T22:35:47.739Z,18.07
2018-01-13T22:38:15.258Z,14.53
2018-01-13T22:40:42.775Z,15.70
2018-01-13T22:43:10.297Z,17.13
2018-01-13T22:45:37.998Z,14.90
2018-01-13T22:48:05.506Z,17.23
2018-01-13T22:50:33.030Z,15.10
2018-01-13T22:53:00.535Z,13.97
2018-01-13T22:55:28.066Z,16.93
2018-01-13T22:57:55.604Z,16.70
2018-01-13T23:00:30.773Z,17.27
2018-01-13T23:02:58.594Z,16.93
2018-01-13T23:05:26.099Z,15.03
2018-01-13T23:07:53.591Z,16.87
2018-01-13T23:10:21.058Z,15.73
2018-01-13T23:12:49.003Z,16.37
2018-01-13T23:15:16.519Z,17.00
2018-01-13T23:17:44.219Z,15.93
2018-01-13T23:20:11.761Z,15.43
2018-01-13T23:22:39.240Z,16.00
2018-01-13T23:25:06.742Z,15.77
2018-01-13T23:27:34.218Z,16.33
2018-01-13T23:30:02.147Z,16.00
2018-01-13T23:32:29.643Z,15.70
2018-01-13T23:34:57.162Z,17.33
2018-01-13T23:37:24.854Z,15.70
2018-01-13T23:39:52.342Z,17.30
2018-01-13T23:42:19.809Z,19.37
2018-01-13T23:44:47.315Z,15.43
2018-01-13T23:47:14.790Z,14.80
2018-01-13T23:49:42.287Z,14.93
2018-01-13T23:52:09.771Z,15.97
2018-01-13T23:54:37.287Z,14.77
2018-01-13T23:57:04.807Z,16.67
2018-01-13T23:59:32.690Z,16.23
